sensor_id;sensor_type;location;lat;lon;timestamp;temperature;humidity
22002;DHT22;11165;51.278;12.398;2022-09-30T00:00:40;7.80;99.90
22002;DHT22;11165;51.278;12.398;2022-09-30T00:03:05;7.70;99.90
22002;DHT22;11165;51.278;12.398;2022-09-30T00:05:31;7.70;99.90
22002;DHT22;11165;51.278;12.398;2022-09-30T00:07:56;7.80;99.90
22002;DHT22;11165;51.278;12.398;2022-09-30T00:10:22;7.60;99.90
22002;DHT22;11165;51.278;12.398;2022-09-30T00:12:50;7.60;99.90
22002;DHT22;11165;51.278;12.398;2022-09-30T00:15:16;7.70;99.90
22002;DHT22;11165;51.278;12.398;2022-09-30T00:17:42;7.70;99.90
22002;DHT22;11165;51.278;12.398;2022-09-30T00:20:08;7.50;99.90
22002;DHT22;11165;51.278;12.398;2022-09-30T00:22:36;7.40;99.90
22002;DHT22;11165;51.278;12.398;2022-09-30T00:25:02;7.50;99.90
22002;DHT22;11165;51.278;12.398;2022-09-30T00:27:27;7.50;99.90
22002;DHT22;11165;51.278;12.398;2022-09-30T00:29:53;7.50;99.90
22002;DHT22;11165;51.278;12.398;2022-09-30T00:32:18;7.40;99.90
22002;DHT22;11165;51.278;12.398;2022-09-30T00:34:44;7.40;99.90
22002;DHT22;11165;51.278;12.398;2022-09-30T00:37:09;7.40;99.90
22002;DHT22;11165;51.278;12.398;2022-09-30T00:39:39;7.40;99.90
22002;DHT22;11165;51.278;12.398;2022-09-30T00:42:09;7.50;99.90
22002;DHT22;11165;51.278;12.398;2022-09-30T00:45:02;7.30;99.90
22002;DHT22;11165;51.278;12.398;2022-09-30T00:53:11;7.20;99.90
22002;DHT22;11165;51.278;12.398;2022-09-30T00:55:47;7.20;99.90
22002;DHT22;11165;51.278;12.398;2022-09-30T01:01:09;7.20;99.90
22002;DHT22;11165;51.278;12.398;2022-09-30T01:03:44;7.10;99.90
22002;DHT22;11165;51.278;12.398;2022-09-30T01:06:14;7.20;99.90
22002;DHT22;11165;51.278;12.398;2022-09-30T01:08:40;7.10;99.90
22002;DHT22;11165;51.278;12.398;2022-09-30T01:11:06;7.10;99.90
22002;DHT22;11165;51.278;12.398;2022-09-30T01:13:33;7.10;99.90
22002;DHT22;11165;51.278;12.398;2022-09-30T01:18:36;7.00;99.90
22002;DHT22;11165;51.278;12.398;2022-09-30T01:32:10;7.00;99.90
22002;DHT22;11165;51.278;12.398;2022-09-30T01:37:24;7.00;99.90
22002;DHT22;11165;51.278;12.398;2022-09-30T01:40:28;6.80;99.90
22002;DHT22;11165;51.278;12.398;2022-09-30T01:42:53;7.00;99.90
22002;DHT22;11165;51.278;12.398;2022-09-30T01:50:53;7.10;99.90
22002;DHT22;11165;51.278;12.398;2022-09-30T01:53:34;7.00;99.90
22002;DHT22;11165;51.278;12.398;2022-09-30T01:56:21;7.00;99.90
22002;DHT22;11165;51.278;12.398;2022-09-30T02:01:57;7.00;99.90
22002;DHT22;11165;51.278;12.398;2022-09-30T02:07:27;7.10;99.90
22002;DHT22;11165;51.278;12.398;2022-09-30T02:10:04;7.00;99.90
22002;DHT22;11165;51.278;12.398;2022-09-30T02:12:33;7.00;99.90
22002;DHT22;11165;51.278;12.398;2022-09-30T02:15:07;7.00;99.90
22002;DHT22;11165;51.278;12.398;2022-09-30T02:17:42;7.10;99.90
22002;DHT22;11165;51.278;12.398;2022-09-30T02:20:25;7.20;99.90
22002;DHT22;11165;51.278;12.398;2022-09-30T02:23:09;7.10;99.90
22002;DHT22;11165;51.278;12.398;2022-09-30T02:25:40;7.10;99.90
22002;DHT22;11165;51.278;12.398;2022-09-30T02:28:10;7.10;99.90
22002;DHT22;11165;51.278;12.398;2022-09-30T02:30:41;7.10;99.90
22002;DHT22;11165;51.278;12.398;2022-09-30T02:33:18;7.10;99.90
22002;DHT22;11165;51.278;12.398;2022-09-30T02:35:47;7.10;99.90
22002;DHT22;11165;51.278;12.398;2022-09-30T02:38:25;7.10;99.90
22002;DHT22;11165;51.278;12.398;2022-09-30T02:40:56;7.00;99.90
22002;DHT22;11165;51.278;12.398;2022-09-30T02:43:27;6.90;99.90
22002;DHT22;11165;51.278;12.398;2022-09-30T02:49:04;7.00;99.90
22002;DHT22;11165;51.278;12.398;2022-09-30T02:54:50;6.90;99.90
22002;DHT22;11165;51.278;12.398;2022-09-30T02:59:31;6.90;99.90
22002;DHT22;11165;51.278;12.398;2022-09-30T03:01:57;7.00;99.90
22002;DHT22;11165;51.278;12.398;2022-09-30T03:04:25;6.90;99.90
22002;DHT22;11165;51.278;12.398;2022-09-30T03:06:52;6.80;99.90
22002;DHT22;11165;51.278;12.398;2022-09-30T03:09:24;6.80;99.90
22002;DHT22;11165;51.278;12.398;2022-09-30T03:11:51;6.90;99.90
22002;DHT22;11165;51.278;12.398;2022-09-30T03:14:46;6.90;99.90
22002;DHT22;11165;51.278;12.398;2022-09-30T03:20:35;6.90;99.90
22002;DHT22;11165;51.278;12.398;2022-09-30T03:28:48;7.00;99.90
22002;DHT22;11165;51.278;12.398;2022-09-30T03:34:30;7.00;99.90
22002;DHT22;11165;51.278;12.398;2022-09-30T03:39:55;7.10;99.90
22002;DHT22;11165;51.278;12.398;2022-09-30T03:42:28;7.10;99.90
22002;DHT22;11165;51.278;12.398;2022-09-30T03:45:08;7.10;99.90
22002;DHT22;11165;51.278;12.398;2022-09-30T03:47:41;7.10;99.90
22002;DHT22;11165;51.278;12.398;2022-09-30T03:50:08;7.10;99.90
22002;DHT22;11165;51.278;12.398;2022-09-30T03:52:35;7.20;99.90
22002;DHT22;11165;51.278;12.398;2022-09-30T03:55:04;7.20;99.90
22002;DHT22;11165;51.278;12.398;2022-09-30T03:57:30;7.20;99.90
22002;DHT22;11165;51.278;12.398;2022-09-30T03:59:56;7.30;99.90
22002;DHT22;11165;51.278;12.398;2022-09-30T04:02:23;7.20;99.90
22002;DHT22;11165;51.278;12.398;2022-09-30T04:04:49;7.10;99.90
22002;DHT22;11165;51.278;12.398;2022-09-30T04:07:14;7.20;99.90
22002;DHT22;11165;51.278;12.398;2022-09-30T04:09:40;7.30;99.90
22002;DHT22;11165;51.278;12.398;2022-09-30T04:12:06;7.30;99.90
22002;DHT22;11165;51.278;12.398;2022-09-30T04:14:32;7.30;99.90
22002;DHT22;11165;51.278;12.398;2022-09-30T04:16:58;7.20;99.90
22002;DHT22;11165;51.278;12.398;2022-09-30T04:19:23;7.30;99.90
22002;DHT22;11165;51.278;12.398;2022-09-30T04:21:52;7.40;99.90
22002;DHT22;11165;51.278;12.398;2022-09-30T04:24:19;7.20;99.90
22002;DHT22;11165;51.278;12.398;2022-09-30T04:26:44;7.20;99.90
22002;DHT22;11165;51.278;12.398;2022-09-30T04:29:10;7.20;99.90
22002;DHT22;11165;51.278;12.398;2022-09-30T04:31:35;7.20;99.90
22002;DHT22;11165;51.278;12.398;2022-09-30T04:34:01;7.20;99.90
22002;DHT22;11165;51.278;12.398;2022-09-30T04:36:26;7.10;99.90
22002;DHT22;11165;51.278;12.398;2022-09-30T04:38:52;7.10;99.90
22002;DHT22;11165;51.278;12.398;2022-09-30T04:41:18;7.10;99.90
22002;DHT22;11165;51.278;12.398;2022-09-30T04:43:45;7.10;99.90
22002;DHT22;11165;51.278;12.398;2022-09-30T04:46:11;7.10;99.90
22002;DHT22;11165;51.278;12.398;2022-09-30T04:48:37;7.10;99.90
22002;DHT22;11165;51.278;12.398;2022-09-30T04:51:03;7.10;99.90
22002;DHT22;11165;51.278;12.398;2022-09-30T04:53:28;7.00;99.90
22002;DHT22;11165;51.278;12.398;2022-09-30T04:55:59;7.00;99.90
22002;DHT22;11165;51.278;12.398;2022-09-30T04:58:25;6.80;99.90
22002;DHT22;11165;51.278;12.398;2022-09-30T05:00:51;7.10;99.90
22002;DHT22;11165;51.278;12.398;2022-09-30T05:03:23;7.10;99.90
22002;DHT22;11165;51.278;12.398;2022-09-30T05:05:49;6.80;99.90
22002;DHT22;11165;51.278;12.398;2022-09-30T05:08:15;6.70;99.90
22002;DHT22;11165;51.278;12.398;2022-09-30T05:10:41;6.70;99.90
22002;DHT22;11165;51.278;12.398;2022-09-30T05:13:06;6.80;99.90
22002;DHT22;11165;51.278;12.398;2022-09-30T05:15:33;6.60;99.90
22002;DHT22;11165;51.278;12.398;2022-09-30T05:17:59;6.70;99.90
22002;DHT22;11165;51.278;12.398;2022-09-30T05:20:24;6.60;99.90
22002;DHT22;11165;51.278;12.398;2022-09-30T05:22:55;6.50;99.90
22002;DHT22;11165;51.278;12.398;2022-09-30T05:25:21;6.60;99.90
22002;DHT22;11165;51.278;12.398;2022-09-30T05:27:48;6.60;99.90
22002;DHT22;11165;51.278;12.398;2022-09-30T05:30:14;6.50;99.90
22002;DHT22;11165;51.278;12.398;2022-09-30T05:32:40;6.50;99.90
22002;DHT22;11165;51.278;12.398;2022-09-30T05:35:06;6.50;99.90
22002;DHT22;11165;51.278;12.398;2022-09-30T05:37:33;6.60;99.90
22002;DHT22;11165;51.278;12.398;2022-09-30T05:39:58;6.60;99.90
22002;DHT22;11165;51.278;12.398;2022-09-30T05:42:25;6.50;99.90
22002;DHT22;11165;51.278;12.398;2022-09-30T05:44:51;6.60;99.90
22002;DHT22;11165;51.278;12.398;2022-09-30T05:47:16;6.50;99.90
22002;DHT22;11165;51.278;12.398;2022-09-30T05:49:42;6.40;99.90
22002;DHT22;11165;51.278;12.398;2022-09-30T05:52:07;6.50;99.90
22002;DHT22;11165;51.278;12.398;2022-09-30T05:54:33;6.60;99.90
22002;DHT22;11165;51.278;12.398;2022-09-30T05:56:58;6.50;99.90
22002;DHT22;11165;51.278;12.398;2022-09-30T05:59:25;6.60;99.90
22002;DHT22;11165;51.278;12.398;2022-09-30T06:01:50;6.80;99.90
22002;DHT22;11165;51.278;12.398;2022-09-30T06:04:16;7.00;99.90
22002;DHT22;11165;51.278;12.398;2022-09-30T06:06:42;6.80;99.90
22002;DHT22;11165;51.278;12.398;2022-09-30T06:09:07;6.90;99.90
22002;DHT22;11165;51.278;12.398;2022-09-30T06:11:33;6.80;99.90
22002;DHT22;11165;51.278;12.398;2022-09-30T06:13:59;6.90;99.90
22002;DHT22;11165;51.278;12.398;2022-09-30T06:16:24;7.00;99.90
22002;DHT22;11165;51.278;12.398;2022-09-30T06:18:50;7.20;99.90
22002;DHT22;11165;51.278;12.398;2022-09-30T06:21:16;7.50;99.90
22002;DHT22;11165;51.278;12.398;2022-09-30T06:23:42;7.90;99.90
22002;DHT22;11165;51.278;12.398;2022-09-30T06:26:09;8.10;99.90
22002;DHT22;11165;51.278;12.398;2022-09-30T06:28:36;8.80;99.90
22002;DHT22;11165;51.278;12.398;2022-09-30T06:31:03;9.60;99.90
22002;DHT22;11165;51.278;12.398;2022-09-30T06:33:29;10.00;99.90
22002;DHT22;11165;51.278;12.398;2022-09-30T06:35:56;10.20;99.90
22002;DHT22;11165;51.278;12.398;2022-09-30T06:38:22;10.00;99.90
22002;DHT22;11165;51.278;12.398;2022-09-30T06:40:48;9.90;99.90
22002;DHT22;11165;51.278;12.398;2022-09-30T06:43:17;10.40;99.90
22002;DHT22;11165;51.278;12.398;2022-09-30T06:45:45;10.70;99.90
22002;DHT22;11165;51.278;12.398;2022-09-30T06:48:10;10.80;99.90
22002;DHT22;11165;51.278;12.398;2022-09-30T06:50:37;11.30;99.90
22002;DHT22;11165;51.278;12.398;2022-09-30T06:53:05;11.40;99.90
22002;DHT22;11165;51.278;12.398;2022-09-30T06:55:31;11.10;99.90
22002;DHT22;11165;51.278;12.398;2022-09-30T06:57:57;11.30;99.90
22002;DHT22;11165;51.278;12.398;2022-09-30T07:00:24;12.00;99.90
22002;DHT22;11165;51.278;12.398;2022-09-30T07:02:50;12.50;99.90
22002;DHT22;11165;51.278;12.398;2022-09-30T07:05:16;12.80;99.90
22002;DHT22;11165;51.278;12.398;2022-09-30T07:07:42;12.60;99.90
22002;DHT22;11165;51.278;12.398;2022-09-30T07:10:09;12.50;99.90
22002;DHT22;11165;51.278;12.398;2022-09-30T07:12:35;12.70;99.90
22002;DHT22;11165;51.278;12.398;2022-09-30T07:15:01;13.40;99.90
22002;DHT22;11165;51.278;12.398;2022-09-30T07:17:26;12.70;99.90
22002;DHT22;11165;51.278;12.398;2022-09-30T07:19:52;12.30;99.90
22002;DHT22;11165;51.278;12.398;2022-09-30T07:22:18;12.20;99.90
22002;DHT22;11165;51.278;12.398;2022-09-30T07:24:59;12.10;99.90
22002;DHT22;11165;51.278;12.398;2022-09-30T07:27:31;12.50;99.90
22002;DHT22;11165;51.278;12.398;2022-09-30T07:29:57;12.30;99.90
22002;DHT22;11165;51.278;12.398;2022-09-30T07:32:23;12.10;99.90
22002;DHT22;11165;51.278;12.398;2022-09-30T07:34:49;11.90;99.90
22002;DHT22;11165;51.278;12.398;2022-09-30T07:37:16;11.70;99.90
22002;DHT22;11165;51.278;12.398;2022-09-30T07:39:44;11.80;99.90
22002;DHT22;11165;51.278;12.398;2022-09-30T07:42:11;11.80;99.90
22002;DHT22;11165;51.278;12.398;2022-09-30T07:44:38;11.50;99.90
22002;DHT22;11165;51.278;12.398;2022-09-30T07:47:09;11.30;99.90
22002;DHT22;11165;51.278;12.398;2022-09-30T07:49:36;11.60;99.90
22002;DHT22;11165;51.278;12.398;2022-09-30T07:52:02;11.80;99.90
22002;DHT22;11165;51.278;12.398;2022-09-30T07:54:30;11.70;99.90
22002;DHT22;11165;51.278;12.398;2022-09-30T07:56:57;12.10;99.90
22002;DHT22;11165;51.278;12.398;2022-09-30T07:59:23;12.20;99.90
22002;DHT22;11165;51.278;12.398;2022-09-30T08:01:49;13.00;99.90
22002;DHT22;11165;51.278;12.398;2022-09-30T08:04:16;12.70;99.90
22002;DHT22;11165;51.278;12.398;2022-09-30T08:06:45;12.20;99.90
22002;DHT22;11165;51.278;12.398;2022-09-30T08:09:13;11.90;99.90
22002;DHT22;11165;51.278;12.398;2022-09-30T08:11:39;11.90;99.90
22002;DHT22;11165;51.278;12.398;2022-09-30T08:14:07;11.70;99.90
22002;DHT22;11165;51.278;12.398;2022-09-30T08:16:36;11.60;99.90
22002;DHT22;11165;51.278;12.398;2022-09-30T08:19:02;11.20;99.90
22002;DHT22;11165;51.278;12.398;2022-09-30T08:21:28;11.30;99.90
22002;DHT22;11165;51.278;12.398;2022-09-30T08:23:54;10.90;99.90
22002;DHT22;11165;51.278;12.398;2022-09-30T08:26:19;10.80;99.90
22002;DHT22;11165;51.278;12.398;2022-09-30T08:28:46;11.00;99.90
22002;DHT22;11165;51.278;12.398;2022-09-30T08:31:20;11.00;99.90
22002;DHT22;11165;51.278;12.398;2022-09-30T08:33:46;11.20;99.90
22002;DHT22;11165;51.278;12.398;2022-09-30T08:36:15;11.30;99.90
22002;DHT22;11165;51.278;12.398;2022-09-30T08:38:41;11.50;99.90
22002;DHT22;11165;51.278;12.398;2022-09-30T08:41:16;12.00;99.90
22002;DHT22;11165;51.278;12.398;2022-09-30T08:49:40;13.50;99.90
22002;DHT22;11165;51.278;12.398;2022-09-30T08:52:15;13.30;99.90
22002;DHT22;11165;51.278;12.398;2022-09-30T08:54:46;13.30;99.90
22002;DHT22;11165;51.278;12.398;2022-09-30T08:57:12;14.10;99.90
22002;DHT22;11165;51.278;12.398;2022-09-30T08:59:43;15.00;99.90
22002;DHT22;11165;51.278;12.398;2022-09-30T09:02:32;15.30;99.90
22002;DHT22;11165;51.278;12.398;2022-09-30T09:05:02;14.80;99.90
22002;DHT22;11165;51.278;12.398;2022-09-30T09:07:39;16.00;99.90
22002;DHT22;11165;51.278;12.398;2022-09-30T09:18:52;15.30;99.90
22002;DHT22;11165;51.278;12.398;2022-09-30T09:21:30;15.00;99.90
22002;DHT22;11165;51.278;12.398;2022-09-30T09:24:01;15.70;99.90
22002;DHT22;11165;51.278;12.398;2022-09-30T09:26:30;16.00;99.90
22002;DHT22;11165;51.278;12.398;2022-09-30T09:32:10;16.60;99.90
22002;DHT22;11165;51.278;12.398;2022-09-30T09:34:37;17.30;99.90
22002;DHT22;11165;51.278;12.398;2022-09-30T09:37:20;17.10;99.90
22002;DHT22;11165;51.278;12.398;2022-09-30T09:40:10;16.90;99.90
22002;DHT22;11165;51.278;12.398;2022-09-30T09:43:00;17.10;99.90
22002;DHT22;11165;51.278;12.398;2022-09-30T09:45:37;16.40;99.90
22002;DHT22;11165;51.278;12.398;2022-09-30T09:48:08;17.20;99.90
22002;DHT22;11165;51.278;12.398;2022-09-30T09:50:56;17.60;99.90
22002;DHT22;11165;51.278;12.398;2022-09-30T09:55:57;18.10;99.90
22002;DHT22;11165;51.278;12.398;2022-09-30T09:58:24;17.80;99.90
22002;DHT22;11165;51.278;12.398;2022-09-30T10:00:51;17.40;99.90
22002;DHT22;11165;51.278;12.398;2022-09-30T10:03:26;17.60;99.90
22002;DHT22;11165;51.278;12.398;2022-09-30T10:08:34;17.40;99.90
22002;DHT22;11165;51.278;12.398;2022-09-30T10:11:04;17.30;99.90
22002;DHT22;11165;51.278;12.398;2022-09-30T10:13:39;17.50;99.90
22002;DHT22;11165;51.278;12.398;2022-09-30T10:16:08;17.50;99.90
22002;DHT22;11165;51.278;12.398;2022-09-30T10:18:49;17.50;99.90
22002;DHT22;11165;51.278;12.398;2022-09-30T10:21:23;17.40;99.90
22002;DHT22;11165;51.278;12.398;2022-09-30T10:23:49;17.40;99.90
22002;DHT22;11165;51.278;12.398;2022-09-30T10:26:21;17.40;99.90
22002;DHT22;11165;51.278;12.398;2022-09-30T10:28:53;17.20;99.90
22002;DHT22;11165;51.278;12.398;2022-09-30T10:31:25;17.00;99.90
22002;DHT22;11165;51.278;12.398;2022-09-30T10:36:53;16.00;99.90
22002;DHT22;11165;51.278;12.398;2022-09-30T10:39:26;16.50;99.90
22002;DHT22;11165;51.278;12.398;2022-09-30T10:42:15;16.40;99.90
22002;DHT22;11165;51.278;12.398;2022-09-30T10:47:31;16.60;99.90
22002;DHT22;11165;51.278;12.398;2022-09-30T10:50:02;16.40;99.90
22002;DHT22;11165;51.278;12.398;2022-09-30T10:52:39;16.40;99.90
22002;DHT22;11165;51.278;12.398;2022-09-30T10:55:32;16.60;99.90
22002;DHT22;11165;51.278;12.398;2022-09-30T11:01:15;16.80;99.90
22002;DHT22;11165;51.278;12.398;2022-09-30T11:04:11;16.30;99.90
22002;DHT22;11165;51.278;12.398;2022-09-30T11:06:39;16.40;99.90
22002;DHT22;11165;51.278;12.398;2022-09-30T11:09:36;16.70;99.90
22002;DHT22;11165;51.278;12.398;2022-09-30T11:12:12;16.60;99.90
22002;DHT22;11165;51.278;12.398;2022-09-30T11:20:36;16.40;99.90
22002;DHT22;11165;51.278;12.398;2022-09-30T11:23:22;16.10;99.90
22002;DHT22;11165;51.278;12.398;2022-09-30T11:26:24;16.40;99.90
22002;DHT22;11165;51.278;12.398;2022-09-30T11:34:35;16.20;99.90
22002;DHT22;11165;51.278;12.398;2022-09-30T11:43:07;16.60;99.90
22002;DHT22;11165;51.278;12.398;2022-09-30T11:45:38;16.40;99.90
22002;DHT22;11165;51.278;12.398;2022-09-30T11:56:37;16.50;99.90
22002;DHT22;11165;51.278;12.398;2022-09-30T11:59:52;16.40;99.90
22002;DHT22;11165;51.278;12.398;2022-09-30T12:02:00;16.20;99.90
22002;DHT22;11165;51.278;12.398;2022-09-30T12:04:46;16.40;99.90
22002;DHT22;11165;51.278;12.398;2022-09-30T12:07:14;16.70;99.90
22002;DHT22;11165;51.278;12.398;2022-09-30T12:09:45;17.00;99.90
22002;DHT22;11165;51.278;12.398;2022-09-30T12:12:14;17.10;99.90
22002;DHT22;11165;51.278;12.398;2022-09-30T12:14:50;17.10;99.90
22002;DHT22;11165;51.278;12.398;2022-09-30T12:19:54;16.30;99.90
22002;DHT22;11165;51.278;12.398;2022-09-30T12:22:29;16.40;99.90
22002;DHT22;11165;51.278;12.398;2022-09-30T12:24:57;16.40;99.90
22002;DHT22;11165;51.278;12.398;2022-09-30T12:27:36;16.50;99.90
22002;DHT22;11165;51.278;12.398;2022-09-30T12:30:16;16.70;99.90
22002;DHT22;11165;51.278;12.398;2022-09-30T12:49:22;16.50;99.90
22002;DHT22;11165;51.278;12.398;2022-09-30T12:51:53;16.50;99.90
22002;DHT22;11165;51.278;12.398;2022-09-30T12:54:29;16.80;99.90
22002;DHT22;11165;51.278;12.398;2022-09-30T12:56:59;16.80;99.90
22002;DHT22;11165;51.278;12.398;2022-09-30T12:59:30;16.60;99.90
22002;DHT22;11165;51.278;12.398;2022-09-30T13:01:57;16.60;99.90
22002;DHT22;11165;51.278;12.398;2022-09-30T13:04:35;16.30;99.90
22002;DHT22;11165;51.278;12.398;2022-09-30T13:09:37;16.30;99.90
22002;DHT22;11165;51.278;12.398;2022-09-30T13:12:28;16.60;99.90
22002;DHT22;11165;51.278;12.398;2022-09-30T13:17:53;16.80;99.90
22002;DHT22;11165;51.278;12.398;2022-09-30T13:20:52;16.80;99.90
22002;DHT22;11165;51.278;12.398;2022-09-30T13:34:31;16.80;99.90
22002;DHT22;11165;51.278;12.398;2022-09-30T13:37:02;17.00;99.90
22002;DHT22;11165;51.278;12.398;2022-09-30T13:39:51;16.90;99.90
22002;DHT22;11165;51.278;12.398;2022-09-30T13:52:30;16.80;99.90
22002;DHT22;11165;51.278;12.398;2022-09-30T13:55:04;16.70;99.90
22002;DHT22;11165;51.278;12.398;2022-09-30T13:57:41;16.60;99.90
22002;DHT22;11165;51.278;12.398;2022-09-30T14:00:15;16.70;99.90
22002;DHT22;11165;51.278;12.398;2022-09-30T14:05:30;16.70;99.90
22002;DHT22;11165;51.278;12.398;2022-09-30T14:08:39;16.60;99.90
22002;DHT22;11165;51.278;12.398;2022-09-30T14:16:55;16.80;99.90
22002;DHT22;11165;51.278;12.398;2022-09-30T14:19:42;16.80;99.90
22002;DHT22;11165;51.278;12.398;2022-09-30T14:22:13;16.60;99.90
22002;DHT22;11165;51.278;12.398;2022-09-30T14:24:39;16.60;99.90
22002;DHT22;11165;51.278;12.398;2022-09-30T14:32:42;16.60;99.90
22002;DHT22;11165;51.278;12.398;2022-09-30T14:35:16;16.70;99.90
22002;DHT22;11165;51.278;12.398;2022-09-30T14:37:46;16.90;99.90
22002;DHT22;11165;51.278;12.398;2022-09-30T14:40:17;16.80;99.90
22002;DHT22;11165;51.278;12.398;2022-09-30T14:42:45;16.90;99.90
22002;DHT22;11165;51.278;12.398;2022-09-30T14:45:33;16.80;99.90
22002;DHT22;11165;51.278;12.398;2022-09-30T14:48:05;16.60;99.90
22002;DHT22;11165;51.278;12.398;2022-09-30T14:50:44;16.70;99.90
22002;DHT22;11165;51.278;12.398;2022-09-30T14:53:26;16.60;99.90
22002;DHT22;11165;51.278;12.398;2022-09-30T14:55:53;16.60;99.90
22002;DHT22;11165;51.278;12.398;2022-09-30T14:58:22;16.50;99.90
22002;DHT22;11165;51.278;12.398;2022-09-30T15:03:26;16.40;99.90
22002;DHT22;11165;51.278;12.398;2022-09-30T15:05:52;16.50;99.90
22002;DHT22;11165;51.278;12.398;2022-09-30T15:08:19;16.40;99.90
22002;DHT22;11165;51.278;12.398;2022-09-30T15:10:47;16.60;99.90
22002;DHT22;11165;51.278;12.398;2022-09-30T15:13:14;16.60;99.90
22002;DHT22;11165;51.278;12.398;2022-09-30T15:15:41;16.50;99.90
22002;DHT22;11165;51.278;12.398;2022-09-30T15:18:31;16.40;99.90
22002;DHT22;11165;51.278;12.398;2022-09-30T15:21:00;16.60;99.90
22002;DHT22;11165;51.278;12.398;2022-09-30T15:23:30;16.50;99.90
22002;DHT22;11165;51.278;12.398;2022-09-30T15:25:57;16.50;99.90
22002;DHT22;11165;51.278;12.398;2022-09-30T15:28:23;16.60;99.90
22002;DHT22;11165;51.278;12.398;2022-09-30T15:30:50;16.50;99.90
22002;DHT22;11165;51.278;12.398;2022-09-30T15:33:20;16.30;99.90
22002;DHT22;11165;51.278;12.398;2022-09-30T15:35:48;16.10;99.90
22002;DHT22;11165;51.278;12.398;2022-09-30T15:38:22;16.10;99.90
22002;DHT22;11165;51.278;12.398;2022-09-30T15:41:04;16.00;99.90
22002;DHT22;11165;51.278;12.398;2022-09-30T15:43:36;16.10;99.90
22002;DHT22;11165;51.278;12.398;2022-09-30T15:46:16;16.10;99.90
22002;DHT22;11165;51.278;12.398;2022-09-30T15:48:43;16.20;99.90
22002;DHT22;11165;51.278;12.398;2022-09-30T15:51:32;16.20;99.90
22002;DHT22;11165;51.278;12.398;2022-09-30T15:54:01;16.20;99.90
22002;DHT22;11165;51.278;12.398;2022-09-30T15:56:35;16.20;99.90
22002;DHT22;11165;51.278;12.398;2022-09-30T15:59:12;16.20;99.90
22002;DHT22;11165;51.278;12.398;2022-09-30T16:01:45;16.30;99.90
22002;DHT22;11165;51.278;12.398;2022-09-30T16:06:47;16.00;99.90
22002;DHT22;11165;51.278;12.398;2022-09-30T16:12:04;15.60;99.90
22002;DHT22;11165;51.278;12.398;2022-09-30T16:14:58;15.50;99.90
22002;DHT22;11165;51.278;12.398;2022-09-30T16:17:30;15.30;99.90
22002;DHT22;11165;51.278;12.398;2022-09-30T16:20:04;15.10;99.90
22002;DHT22;11165;51.278;12.398;2022-09-30T16:25:13;14.90;99.90
22002;DHT22;11165;51.278;12.398;2022-09-30T16:27:41;14.70;99.90
22002;DHT22;11165;51.278;12.398;2022-09-30T16:30:09;14.60;99.90
22002;DHT22;11165;51.278;12.398;2022-09-30T16:32:40;14.40;99.90
22002;DHT22;11165;51.278;12.398;2022-09-30T16:35:19;14.30;99.90
22002;DHT22;11165;51.278;12.398;2022-09-30T16:37:46;14.20;99.90
22002;DHT22;11165;51.278;12.398;2022-09-30T16:40:23;14.20;99.90
22002;DHT22;11165;51.278;12.398;2022-09-30T16:42:49;14.00;99.90
22002;DHT22;11165;51.278;12.398;2022-09-30T16:45:15;13.80;99.90
22002;DHT22;11165;51.278;12.398;2022-09-30T16:47:42;13.80;99.90
22002;DHT22;11165;51.278;12.398;2022-09-30T16:50:24;13.70;99.90
22002;DHT22;11165;51.278;12.398;2022-09-30T16:52:52;13.60;99.90
22002;DHT22;11165;51.278;12.398;2022-09-30T16:55:18;13.40;99.90
22002;DHT22;11165;51.278;12.398;2022-09-30T16:57:43;13.20;99.90
22002;DHT22;11165;51.278;12.398;2022-09-30T17:00:13;13.10;99.90
22002;DHT22;11165;51.278;12.398;2022-09-30T17:02:43;13.10;99.90
22002;DHT22;11165;51.278;12.398;2022-09-30T17:05:13;12.90;99.90
22002;DHT22;11165;51.278;12.398;2022-09-30T17:07:41;12.80;99.90
22002;DHT22;11165;51.278;12.398;2022-09-30T17:10:10;12.60;99.90
22002;DHT22;11165;51.278;12.398;2022-09-30T17:12:40;12.50;99.90
22002;DHT22;11165;51.278;12.398;2022-09-30T17:15:06;12.50;99.90
22002;DHT22;11165;51.278;12.398;2022-09-30T17:17:32;12.50;99.90
22002;DHT22;11165;51.278;12.398;2022-09-30T17:19:57;12.40;99.90
22002;DHT22;11165;51.278;12.398;2022-09-30T17:22:23;12.40;99.90
22002;DHT22;11165;51.278;12.398;2022-09-30T17:24:48;12.40;99.90
22002;DHT22;11165;51.278;12.398;2022-09-30T17:27:14;12.40;99.90
22002;DHT22;11165;51.278;12.398;2022-09-30T17:29:40;12.30;99.90
22002;DHT22;11165;51.278;12.398;2022-09-30T17:32:05;12.20;99.90
22002;DHT22;11165;51.278;12.398;2022-09-30T17:34:30;11.90;99.90
22002;DHT22;11165;51.278;12.398;2022-09-30T17:36:56;11.60;99.90
22002;DHT22;11165;51.278;12.398;2022-09-30T17:39:24;11.50;99.90
22002;DHT22;11165;51.278;12.398;2022-09-30T17:41:49;11.30;99.90
22002;DHT22;11165;51.278;12.398;2022-09-30T17:44:33;11.40;99.90
22002;DHT22;11165;51.278;12.398;2022-09-30T17:46:59;11.50;99.90
22002;DHT22;11165;51.278;12.398;2022-09-30T17:49:30;11.60;99.90
22002;DHT22;11165;51.278;12.398;2022-09-30T17:51:56;11.60;99.90
22002;DHT22;11165;51.278;12.398;2022-09-30T17:54:23;11.60;99.90
22002;DHT22;11165;51.278;12.398;2022-09-30T17:56:49;11.50;99.90
22002;DHT22;11165;51.278;12.398;2022-09-30T17:59:14;11.40;99.90
22002;DHT22;11165;51.278;12.398;2022-09-30T18:01:40;11.40;99.90
22002;DHT22;11165;51.278;12.398;2022-09-30T18:04:06;11.30;99.90
22002;DHT22;11165;51.278;12.398;2022-09-30T18:06:31;11.20;99.90
22002;DHT22;11165;51.278;12.398;2022-09-30T18:08:58;11.30;99.90
22002;DHT22;11165;51.278;12.398;2022-09-30T18:11:26;11.30;99.90
22002;DHT22;11165;51.278;12.398;2022-09-30T18:13:54;11.10;99.90
22002;DHT22;11165;51.278;12.398;2022-09-30T18:16:25;11.00;99.90
22002;DHT22;11165;51.278;12.398;2022-09-30T18:18:55;10.90;99.90
22002;DHT22;11165;51.278;12.398;2022-09-30T18:21:20;11.00;99.90
22002;DHT22;11165;51.278;12.398;2022-09-30T18:23:46;11.00;99.90
22002;DHT22;11165;51.278;12.398;2022-09-30T18:26:11;10.90;99.90
22002;DHT22;11165;51.278;12.398;2022-09-30T18:28:37;10.90;99.90
22002;DHT22;11165;51.278;12.398;2022-09-30T18:31:05;10.80;99.90
22002;DHT22;11165;51.278;12.398;2022-09-30T18:33:32;10.60;99.90
22002;DHT22;11165;51.278;12.398;2022-09-30T18:35:59;10.50;99.90
22002;DHT22;11165;51.278;12.398;2022-09-30T18:38:25;10.60;99.90
22002;DHT22;11165;51.278;12.398;2022-09-30T18:40:53;10.60;99.90
22002;DHT22;11165;51.278;12.398;2022-09-30T18:43:19;10.60;99.90
22002;DHT22;11165;51.278;12.398;2022-09-30T18:45:55;10.60;99.90
22002;DHT22;11165;51.278;12.398;2022-09-30T18:48:22;10.60;99.90
22002;DHT22;11165;51.278;12.398;2022-09-30T18:50:48;10.60;99.90